Espace membre
Imprimable
Lapugnoy, 16/02/2014, FRA - Trail des Givrés
Liste des rapports > 9km - Classement
Recherche: Page: [1]
33 Entrées
 
Les réclamations ne sont plus acceptées, les résultats sont considérés comme définitifs.
RangNrNomAgeIOCEquipeRéelTempsTkmMoy.ScrLocalité
1.2034LEJEUNE FREDERIC42FRA43:4543:464:52 12.346BRUAY LA BUISSIERE
2.2002JEROME DENIS45FRA44:0244:034:54 12.267DIVION
3.2012ROUSSEAU JACKY48FRASERVINS ATHLETIC CLUB44:5844:585:00 12.018SERVINS
4.2188BLARY PHILIPPE47FRARCA TRIATHLON49:1449:225:30 10.9416HAUTEVILLE
5.2006HARDY FABIEN47FRA49:4549:535:33 10.8317
6.2036DESCHILDT BERTRAND42FRA53:3553:375:58 10.0727BLARINGHEM
7.2018DARTUS JEROME43FRA56:1356:176:16 9.6034SAINT NICOLAS
8.2077MELLIER MARC46FRAFC BOURS56:3556:356:18 9.5435MAREST
9.2043LOPES JEAN-LUC48FRA58:3058:536:33 9.1746LAMBRE LES AIRE
10.2072DEMANDRILLE ARNAUD45FRAFC BOURS1:00:151:00:256:43 8.9452LILLERS
11.2203MAILLARD ERIC43FRA1:01:331:01:416:52 8.7660ANNEZIN
12.2158VANDEWYNCKEL OLIVIER42FRA1:01:581:01:586:54 8.7263SAILLY LABOURSE
13.2041HENRY DENIS43FRA1:02:581:03:017:01 8.5773FOUQUEREUIL
14.2186DUQUENNE REMY49FRA1:03:321:03:577:07 8.4478
15.2173CARTON DAVID44FRA1:03:571:04:017:07 8.4479BARLIN
16.2127BOCQUET PHILIPPE44FRA1:04:591:05:067:14 8.3085SECLIN
17.2059LECLERCQ JEAN-LUC45FRAARTOIS ATHLETISME1:05:011:05:217:16 8.2686OBLINGHEM
18.2013HAY JEAN-MARIE49FRASERVINS ATHLETIC CLUB1:05:281:05:337:17 8.2488REBREUVE-RANCHICOURT
19.2118DERETZ PHILIPPE44FRA1:05:381:05:447:19 8.2289
20.2030COLLELA FABRICE47FRA1:07:171:07:337:31 7.9999ANNEZIN
21.2031DUPONT STÉPHANE45FRA1:08:451:09:027:41 7.82108LAPUGNOY
22.2171LECLERCQ FABRICE42FRANÉANT1:09:461:09:467:46 7.74111BUSNES
23.2115LEFEBVRE JEAN-FRANÇOIS41FRA1:09:361:09:487:46 7.74112CALONNE RICOUART
24.2133MARIELLE FABRICE40FRA1:11:041:11:047:54 7.60121
25.2057D'ALAUZIER ALEXANDRE41FRACREDIT DU NORD1:10:431:11:067:54 7.60122ARRAS
26.1230ROGER CHRISTOPHER40FRATRAIL ATHLETIQUE BESSOIS1:10:441:11:107:55 7.59123BESSE SUR ISSOLE
27.2022DUSSART CLAUDE45FRA1:11:101:11:287:57 7.56125CASSEL
28.1080DELELIS VINCENT43FRA1:11:481:12:038:01 7.50136BRUAY
29.2026VINCENT PHILIPPE43FRA1:14:371:14:528:20 7.21147BURBURE
30.2162VUOTTO FREDERIC41FRARC ARRAS1:16:431:17:008:34 7.01157ARRAS
31.2128VANDEN STROME CHRISTOPHE48FRA1:24:051:24:129:22 6.41178SECLIN
32.2005DAMMAN DOMINIQUE49FRA1:27:211:27:389:45 6.16181BURBURE
33.2079TERNOY OLIVIER47FRA1:27:301:27:519:46 6.15182LILLERS
DNF: abandon; DSQ: disqualifié; Vitesse en km/h
Page: [1]